Alba, TX (75410)

1:58 PM CST on February 08, 2016 (GMT -0600)
Ray Branch - Lake Fork | | Change Station
CLOSE
Current Station
Personal Weather Station
Location: Alba, TX
Elevation: 420 ft
Nearby Weather Stations
Active Advisory: Lake Wind Advisory

Elev 420 ft 32.81 °N, 95.58 °W | Updated 5 minutes ago

Clear
Clear
54.2 °F
Feels Like 54.2 °F
N
9.0
Wind Variable Wind from NW
Gusts 16.0 mph

Today
High -- | Low -- °F
--% Chance of Precip.
Yesterday
High -- | Low -- °F
Precip. -- in
Pressure 30.23 in
Visibility 10.0 miles
Clouds Clear
Dew Point 18 °F
Humidity 24%
Rainfall 0.00 in
Snow Depth Not available.
7:12 AM 6:01 PM
New Moon, 0% visible
METAR KJDD 081935Z AUTO 28018G30KT 10SM CLR 12/M09 A3023 RMK AO2
Pressure 30.23 in
Visibility 10.0 miles
Clouds Clear
Dew Point 18 °F
Humidity 24%
Rainfall 0.00 in
Snow Depth Not available.
7:12 AM 6:01 PM
New Moon, 0% visible
METAR KJDD 081935Z AUTO 28018G30KT 10SM CLR 12/M09 A3023 RMK AO2

10-Day Weather Forecast

Almanac

Astronomy

Feb. 08, 2016 Rise Set
Actual Time
Civil Twilight
Nautical Twilight
Astronomical Twilight
Moon
Length of Visible Light
Length of Day
Tomorrow will be .
, % of the Moon is Illuminated

Today's Extremes

State Highs State Lows

Community

WunderPhotos

Upload Photos

1,891,499 photos uploaded!

WunderBlog® & News

Nearby

Air Quality

  Air Quality AQ Index Pollutant
Not available.

Snow Depth

Station Depth Elevation

Earthquake Activity

City Distance Mag. Time & Date
Minimum magnitude displayed is 2.5.

Coastal Water Temperatures

Place Temperature

Stations

Nearby Weather Stations

Station Location Temp. Windchill Dew Point Humidity Wind Precip. Elev Updated Type
                   

Watches & Warnings

Lake Wind Advisory
Issued: 10:48 AM CST Feb. 8, 2016 – National Weather Service

... Lake Wind Advisory remains in effect until 6 PM CST this
evening...

* event... northwest winds of to 20 to 30 mph with gusts as high
as 40 mph are expected due to a very tight pressure gradient
present across the region.

* Timing... through 6 PM CST Monday.

* Impact... boaters should exercise caution on area lakes due to
rough conditions.

Precautionary/preparedness actions...

A lake Wind Advisory indicates that winds will cause rough chop
on area lakes. Small boats will be especially prone to capsizing.



12